createdAt,value
2022-10-24T00:01:16.498Z,1.15
2022-10-24T00:03:43.562Z,1.17
2022-10-24T00:06:12.529Z,1.45
2022-10-24T00:08:40.909Z,1.00
2022-10-24T00:11:18.598Z,1.23
2022-10-24T00:13:45.618Z,1.00
2022-10-24T00:16:13.730Z,1.10
2022-10-24T00:18:40.984Z,1.20
2022-10-24T00:21:08.678Z,1.20
2022-10-24T00:23:36.073Z,1.13
2022-10-24T00:26:04.437Z,1.25
2022-10-24T00:28:33.512Z,1.60
2022-10-24T00:31:00.857Z,1.50
2022-10-24T00:33:28.081Z,1.30
2022-10-24T00:35:54.991Z,1.13
2022-10-24T00:38:21.879Z,1.42
2022-10-24T00:40:48.745Z,0.90
2022-10-24T00:43:24.230Z,1.00
2022-10-24T00:45:57.330Z,1.23
2022-10-24T00:48:32.918Z,1.27
2022-10-24T00:51:16.679Z,1.40
2022-10-24T00:53:47.847Z,1.48
2022-10-24T00:56:18.707Z,1.20
2022-10-24T00:58:46.337Z,1.30
2022-10-24T01:01:13.436Z,1.17
2022-10-24T01:03:40.800Z,1.50
2022-10-24T01:06:29.381Z,1.50
2022-10-24T01:09:14.103Z,1.20
2022-10-24T01:11:59.586Z,1.33
2022-10-24T01:14:58.098Z,1.10
2022-10-24T01:17:39.119Z,1.17
2022-10-24T01:20:34.758Z,1.00
2022-10-24T01:23:13.991Z,1.48
2022-10-24T01:25:55.876Z,1.27
2022-10-24T01:28:28.938Z,1.13
2022-10-24T01:31:21.757Z,1.20
2022-10-24T01:33:55.811Z,1.20
2022-10-24T01:36:41.022Z,1.35
2022-10-24T01:39:15.062Z,1.08
2022-10-24T01:41:43.720Z,1.70
2022-10-24T01:44:33.135Z,1.35
2022-10-24T01:47:06.865Z,1.48
2022-10-24T01:49:37.281Z,1.48
2022-10-24T01:52:08.318Z,1.48
2022-10-24T01:54:37.518Z,1.20
2022-10-24T01:57:05.677Z,1.35
2022-10-24T01:59:32.451Z,1.58
2022-10-24T02:02:03.113Z,1.30
2022-10-24T02:04:33.139Z,1.52
2022-10-24T02:07:04.416Z,1.80
2022-10-24T02:09:35.010Z,1.17
2022-10-24T02:12:01.929Z,1.38
2022-10-24T02:14:35.695Z,1.60
2022-10-24T02:17:03.900Z,1.52
2022-10-24T02:19:32.304Z,1.33
2022-10-24T02:22:24.818Z,1.42
2022-10-24T02:25:09.295Z,1.58
2022-10-24T02:27:43.735Z,1.48
2022-10-24T02:30:19.126Z,1.50
2022-10-24T02:32:52.854Z,1.42
2022-10-24T02:35:24.107Z,1.10
2022-10-24T02:37:55.294Z,1.60
2022-10-24T02:40:23.305Z,1.35
2022-10-24T02:42:55.288Z,1.52
2022-10-24T02:45:23.360Z,1.83
2022-10-24T02:47:53.110Z,1.50
2022-10-24T02:50:20.497Z,1.48
2022-10-24T02:52:48.108Z,1.48
2022-10-24T02:55:15.081Z,1.17
2022-10-24T02:57:42.025Z,1.70
2022-10-24T03:00:09.574Z,1.55
2022-10-24T03:02:36.472Z,1.45
2022-10-24T03:05:03.538Z,2.15
2022-10-24T03:10:02.283Z,1.75
2022-10-24T03:12:29.169Z,1.90
2022-10-24T03:14:56.006Z,1.55
2022-10-24T03:17:23.442Z,1.35
2022-10-24T03:19:50.333Z,1.60
2022-10-24T03:22:17.238Z,1.80
2022-10-24T03:24:54.888Z,1.40
2022-10-24T03:27:22.765Z,1.60
2022-10-24T03:29:49.742Z,1.40
2022-10-24T03:32:16.692Z,1.60
2022-10-24T03:34:43.748Z,1.20
2022-10-24T03:37:10.701Z,1.40
2022-10-24T03:39:37.684Z,2.17
2022-10-24T03:42:04.689Z,1.80
2022-10-24T03:44:31.559Z,2.00
2022-10-24T03:46:58.457Z,1.73
2022-10-24T03:49:25.591Z,1.83
2022-10-24T03:51:52.439Z,1.60
2022-10-24T03:54:19.347Z,1.75
2022-10-24T03:56:47.991Z,1.60
2022-10-24T03:59:15.030Z,1.77
2022-10-24T04:01:42.115Z,2.28
2022-10-24T04:04:09.101Z,2.00
2022-10-24T04:06:36.703Z,7.22
2022-10-24T04:09:04.710Z,2.40
2022-10-24T04:11:31.782Z,1.85
2022-10-24T04:16:34.913Z,2.30
2022-10-24T04:19:02.581Z,2.15
2022-10-24T04:21:29.827Z,2.33
2022-10-24T04:23:57.416Z,2.70
2022-10-24T04:26:24.789Z,2.50
2022-10-24T04:28:51.800Z,2.40
2022-10-24T04:31:22.492Z,2.35
2022-10-24T04:33:50.792Z,3.33
2022-10-24T04:36:17.777Z,1.98
2022-10-24T04:38:44.625Z,2.47
2022-10-24T04:41:12.352Z,1.90
2022-10-24T04:43:40.562Z,2.00
2022-10-24T04:46:07.689Z,1.67
2022-10-24T04:48:34.822Z,2.10
2022-10-24T04:51:02.067Z,1.85
2022-10-24T04:53:29.110Z,1.60
2022-10-24T04:55:56.030Z,2.33
2022-10-24T04:58:23.002Z,1.60
2022-10-24T05:00:50.500Z,1.58
2022-10-24T05:03:18.630Z,2.10
2022-10-24T05:05:46.611Z,2.05
2022-10-24T05:08:13.598Z,2.30
2022-10-24T05:10:40.652Z,2.38
2022-10-24T05:13:07.788Z,2.55
2022-10-24T05:15:34.858Z,1.98
2022-10-24T05:18:02.101Z,2.38
2022-10-24T05:20:29.295Z,2.10
2022-10-24T05:22:56.493Z,1.90
2022-10-24T05:25:23.403Z,1.80
2022-10-24T05:27:50.295Z,1.90
2022-10-24T05:30:17.178Z,1.60
2022-10-24T05:32:44.669Z,1.80
2022-10-24T05:35:12.368Z,1.38
2022-10-24T05:37:39.383Z,1.30
2022-10-24T05:40:11.122Z,1.42
2022-10-24T05:42:38.825Z,1.77
2022-10-24T05:45:08.224Z,1.80
2022-10-24T05:47:35.162Z,1.60
2022-10-24T05:50:02.303Z,1.83
2022-10-24T05:52:29.300Z,1.50
2022-10-24T05:55:06.891Z,1.80
2022-10-24T05:57:36.089Z,1.50
2022-10-24T06:00:05.069Z,1.40
2022-10-24T06:02:39.379Z,1.40
2022-10-24T06:05:07.832Z,1.60
2022-10-24T06:07:35.378Z,1.50
2022-10-24T06:10:04.386Z,1.70
2022-10-24T06:12:31.393Z,1.25
2022-10-24T06:14:59.777Z,2.28
2022-10-24T06:17:26.978Z,1.75
2022-10-24T06:19:53.944Z,1.73
2022-10-24T06:22:24.212Z,1.60
2022-10-24T06:24:51.352Z,1.83
2022-10-24T06:27:18.343Z,1.90
2022-10-24T06:29:45.830Z,1.80
2022-10-24T06:32:12.739Z,1.80
2022-10-24T06:34:40.438Z,1.33
2022-10-24T06:37:07.314Z,1.50
2022-10-24T06:39:34.256Z,1.35
2022-10-24T06:42:01.908Z,1.63
2022-10-24T06:44:28.860Z,1.60
2022-10-24T06:46:55.771Z,1.60
2022-10-24T06:49:22.858Z,1.42
2022-10-24T06:51:49.834Z,1.63
2022-10-24T06:54:17.126Z,1.40
2022-10-24T06:56:44.009Z,1.70
2022-10-24T06:59:14.652Z,1.48
2022-10-24T07:01:42.400Z,1.70
2022-10-24T07:04:09.527Z,1.70
2022-10-24T07:06:36.992Z,1.60
2022-10-24T07:09:06.581Z,1.73
2022-10-24T07:11:34.589Z,1.80
2022-10-24T07:14:03.451Z,1.48
2022-10-24T07:16:31.448Z,1.30
2022-10-24T07:18:58.627Z,1.13
2022-10-24T07:21:28.632Z,1.33
2022-10-24T07:23:56.605Z,1.40
2022-10-24T07:26:25.460Z,1.50
2022-10-24T07:31:35.209Z,1.67
2022-10-24T07:34:04.653Z,1.65
2022-10-24T07:36:31.677Z,1.60
2022-10-24T07:38:59.689Z,1.70
2022-10-24T07:41:28.650Z,1.60
2022-10-24T07:43:57.923Z,1.65
2022-10-24T07:46:26.330Z,1.30
2022-10-24T07:48:54.280Z,1.67
2022-10-24T07:51:22.139Z,1.80
2022-10-24T07:53:49.434Z,1.60
2022-10-24T07:56:17.667Z,1.70
2022-10-24T07:58:45.901Z,1.60
2022-10-24T08:01:16.280Z,1.40
2022-10-24T08:03:43.596Z,1.70
2022-10-24T08:06:14.464Z,1.85
2022-10-24T08:08:41.641Z,1.55
2022-10-24T08:11:10.817Z,1.67
2022-10-24T08:13:37.998Z,1.70
2022-10-24T08:16:06.761Z,1.30
2022-10-24T08:18:38.665Z,1.33
2022-10-24T08:21:08.345Z,1.25
2022-10-24T08:23:36.926Z,1.63
2022-10-24T08:26:08.399Z,1.42
2022-10-24T08:28:36.217Z,1.58
2022-10-24T08:31:08.715Z,1.77
2022-10-24T08:33:35.661Z,3.28
2022-10-24T08:36:06.230Z,5.35
2022-10-24T08:38:33.492Z,4.78
2022-10-24T08:41:00.979Z,4.05
2022-10-24T08:43:28.012Z,4.32
2022-10-24T08:46:03.066Z,4.43
2022-10-24T08:48:37.642Z,5.30
2022-10-24T08:51:19.826Z,5.50
2022-10-24T08:53:47.907Z,3.75
2022-10-24T08:56:14.836Z,3.17
2022-10-24T08:58:45.236Z,4.15
2022-10-24T09:01:27.445Z,2.88
2022-10-24T09:03:58.549Z,3.20
2022-10-24T09:06:28.854Z,3.05
2022-10-24T09:09:27.133Z,2.60
2022-10-24T09:12:01.870Z,2.40
2022-10-24T09:14:33.750Z,2.35
2022-10-24T09:17:06.826Z,2.35
2022-10-24T09:19:33.813Z,1.85
2022-10-24T09:22:02.422Z,1.63
2022-10-24T09:24:54.037Z,2.30
2022-10-24T09:27:25.666Z,2.00
2022-10-24T09:29:53.141Z,2.25
2022-10-24T09:32:27.699Z,2.00
2022-10-24T09:34:55.336Z,1.73
2022-10-24T09:37:49.314Z,2.13
2022-10-24T09:40:37.975Z,1.80
2022-10-24T09:43:07.733Z,2.38
2022-10-24T10:17:02.725Z,2.28
2022-10-24T10:19:36.259Z,1.85
2022-10-24T10:22:03.101Z,2.08
2022-10-24T10:24:35.955Z,2.47
2022-10-24T10:27:03.058Z,2.40
2022-10-24T10:29:29.989Z,1.58
2022-10-24T10:32:23.346Z,1.70
2022-10-24T10:35:02.051Z,1.65
2022-10-24T10:37:36.059Z,1.55
2022-10-24T10:40:16.311Z,1.52
2022-10-24T10:42:57.923Z,1.70
2022-10-24T10:45:50.777Z,1.30
2022-10-24T10:48:36.827Z,1.15
2022-10-24T10:51:21.525Z,1.47
2022-10-24T10:54:11.592Z,1.25
2022-10-24T10:57:00.470Z,1.30
2022-10-24T11:00:00.160Z,1.30
2022-10-24T11:02:57.622Z,1.20
2022-10-24T11:05:46.311Z,1.23
2022-10-24T11:08:34.509Z,1.15
2022-10-24T11:11:06.935Z,1.23
2022-10-24T11:13:51.047Z,1.52
2022-10-24T11:16:25.274Z,1.40
2022-10-24T11:18:54.532Z,1.38
2022-10-24T11:21:25.341Z,1.20
2022-10-24T11:24:13.589Z,1.67
2022-10-24T11:26:48.342Z,1.30
2022-10-24T11:29:23.975Z,1.40
2022-10-24T11:31:59.088Z,1.60
2022-10-24T11:34:35.574Z,1.92
2022-10-24T11:40:18.743Z,1.77
2022-10-24T11:42:45.973Z,1.70
2022-10-24T11:45:18.825Z,1.80
2022-10-24T11:48:21.129Z,1.65
2022-10-24T11:51:30.118Z,2.22
2022-10-24T11:54:05.041Z,1.52
2022-10-24T11:56:42.303Z,1.80
2022-10-24T11:59:25.692Z,1.40
2022-10-24T12:01:55.265Z,1.65
2022-10-24T12:05:01.665Z,2.28
2022-10-24T12:07:40.074Z,1.80
2022-10-24T12:10:27.764Z,1.80
2022-10-24T12:13:06.418Z,1.50
2022-10-24T12:15:59.268Z,1.80
2022-10-24T12:18:41.747Z,2.05
2022-10-24T12:21:13.038Z,1.80
2022-10-24T12:23:41.797Z,1.70
2022-10-24T12:26:14.929Z,2.92
2022-10-24T12:28:43.657Z,2.22
2022-10-24T12:31:14.223Z,1.88
2022-10-24T12:33:43.248Z,1.55
2022-10-24T12:36:10.819Z,1.80
2022-10-24T12:38:37.723Z,1.90
2022-10-24T12:41:27.927Z,1.70
2022-10-24T12:44:26.243Z,1.50
2022-10-24T12:46:55.219Z,1.80
2022-10-24T12:49:29.243Z,1.65
2022-10-24T12:51:57.290Z,1.70
2022-10-24T12:54:44.876Z,2.45
2022-10-24T12:57:11.745Z,1.63
2022-10-24T12:59:57.766Z,2.05
2022-10-24T13:02:48.463Z,1.77
2022-10-24T13:05:34.905Z,2.10
2022-10-24T13:08:10.873Z,2.47
2022-10-24T13:10:49.640Z,2.00
2022-10-24T13:13:25.354Z,1.75
2022-10-24T13:16:18.892Z,1.52
2022-10-24T13:19:00.285Z,1.90
2022-10-24T13:21:31.463Z,1.88
2022-10-24T13:24:12.910Z,1.80
2022-10-24T13:26:45.946Z,1.98
2022-10-24T13:29:16.336Z,1.83
2022-10-24T13:31:46.355Z,1.90
2022-10-24T13:34:19.036Z,1.98
2022-10-24T13:36:51.021Z,1.52
2022-10-24T13:39:23.953Z,2.15
2022-10-24T13:41:58.857Z,1.48
2022-10-24T13:44:29.486Z,1.98
2022-10-24T13:47:17.673Z,2.45
2022-10-24T13:50:13.390Z,1.83
2022-10-24T13:52:49.615Z,1.42
2022-10-24T13:55:39.029Z,2.10
2022-10-24T13:58:05.882Z,1.92
2022-10-24T14:00:38.144Z,1.38
2022-10-24T14:03:11.435Z,1.67
2022-10-24T14:05:44.487Z,1.73
2022-10-24T14:08:31.601Z,1.80
2022-10-24T14:11:02.161Z,2.00
2022-10-24T14:13:31.675Z,1.88
2022-10-24T14:16:04.462Z,1.45
2022-10-24T14:18:32.675Z,1.60
2022-10-24T14:21:02.279Z,1.48
2022-10-24T14:23:37.665Z,1.80
2022-10-24T14:26:08.554Z,1.90
2022-10-24T14:28:39.092Z,1.63
2022-10-24T14:31:18.389Z,1.80
2022-10-24T14:33:48.872Z,1.83
2022-10-24T14:36:18.741Z,2.05
2022-10-24T14:38:46.010Z,1.45
2022-10-24T14:41:13.871Z,1.83
2022-10-24T14:43:44.208Z,2.05
2022-10-24T14:46:14.125Z,1.70
2022-10-24T14:48:47.361Z,1.60
2022-10-24T14:51:39.149Z,1.90
2022-10-24T14:54:17.701Z,2.03
2022-10-24T14:56:45.750Z,1.45
2022-10-24T14:59:37.770Z,1.92
2022-10-24T15:02:28.063Z,2.10
2022-10-24T15:05:13.253Z,2.10
2022-10-24T15:07:52.258Z,1.80
2022-10-24T15:10:38.599Z,1.80
2022-10-24T15:13:17.296Z,1.80
2022-10-24T15:15:44.136Z,1.92
2022-10-24T15:18:18.564Z,2.05
2022-10-24T15:20:47.469Z,1.70
2022-10-24T15:23:21.038Z,1.98
2022-10-24T15:26:00.343Z,2.42
2022-10-24T15:28:44.735Z,2.20
2022-10-24T15:31:13.501Z,2.22
2022-10-24T15:33:41.058Z,2.20
2022-10-24T15:36:29.620Z,2.15
2022-10-24T15:39:01.425Z,2.10
2022-10-24T15:41:28.979Z,2.10
2022-10-24T15:43:57.263Z,2.28
2022-10-24T15:46:24.954Z,2.70
2022-10-24T15:48:52.564Z,2.30
2022-10-24T15:51:22.311Z,2.13
2022-10-24T15:53:50.468Z,2.40
2022-10-24T15:56:17.924Z,2.30
2022-10-24T15:58:44.847Z,2.42
2022-10-24T16:01:24.116Z,2.22
2022-10-24T16:03:51.269Z,2.22
2022-10-24T16:06:18.194Z,2.40
2022-10-24T16:08:45.078Z,2.47
2022-10-24T16:11:12.579Z,2.45
2022-10-24T16:13:41.330Z,3.30
2022-10-24T16:16:08.608Z,3.00
2022-10-24T16:18:37.608Z,2.38
2022-10-24T16:21:05.243Z,2.42
2022-10-24T16:23:33.912Z,2.00
2022-10-24T16:26:00.917Z,2.20
2022-10-24T16:28:28.969Z,2.30
2022-10-24T16:30:56.078Z,2.25
2022-10-24T16:33:23.098Z,2.25
2022-10-24T16:35:51.129Z,2.03
2022-10-24T16:38:18.512Z,2.28
2022-10-24T16:40:47.170Z,2.65
2022-10-24T16:43:16.804Z,1.95
2022-10-24T16:45:44.261Z,2.53
2022-10-24T16:48:11.283Z,2.63
2022-10-24T16:50:42.390Z,2.42
2022-10-24T16:53:10.367Z,1.95
2022-10-24T16:55:37.509Z,2.13
2022-10-24T16:58:04.472Z,1.58
2022-10-24T17:00:31.613Z,2.15
2022-10-24T17:02:58.940Z,2.05
2022-10-24T17:05:28.405Z,1.85
2022-10-24T17:07:55.999Z,1.98
2022-10-24T17:10:24.821Z,1.58
2022-10-24T17:12:52.621Z,1.75
2022-10-24T17:15:22.132Z,2.00
2022-10-24T17:17:50.344Z,1.50
2022-10-24T17:20:17.446Z,1.52
2022-10-24T17:22:46.532Z,1.98
2022-10-24T17:25:19.854Z,2.00
2022-10-24T17:27:47.571Z,2.20
2022-10-24T17:30:24.236Z,1.50
2022-10-24T17:32:51.403Z,1.30
2022-10-24T17:35:21.622Z,2.25
2022-10-24T17:38:26.080Z,2.00
2022-10-24T17:40:58.330Z,1.98
2022-10-24T17:43:27.289Z,1.83
2022-10-24T17:45:56.747Z,1.67
2022-10-24T17:48:24.534Z,1.88
2022-10-24T17:50:53.442Z,1.75
2022-10-24T17:53:20.352Z,1.40
2022-10-24T17:55:48.099Z,1.77
2022-10-24T17:58:16.387Z,1.60
2022-10-24T18:00:44.711Z,1.90
2022-10-24T18:03:12.183Z,1.58
2022-10-24T18:05:39.333Z,1.67
2022-10-24T18:08:09.127Z,1.77
2022-10-24T18:10:42.353Z,1.60
2022-10-24T18:13:09.846Z,1.25
2022-10-24T18:15:36.999Z,1.65
2022-10-24T18:18:04.679Z,2.05
2022-10-24T18:20:32.314Z,1.40
2022-10-24T18:22:59.484Z,1.80
2022-10-24T18:25:26.774Z,1.45
2022-10-24T18:27:53.972Z,1.65
2022-10-24T18:30:20.986Z,1.38
2022-10-24T18:32:48.795Z,1.60
2022-10-24T18:35:15.914Z,1.50
2022-10-24T18:37:43.296Z,1.40
2022-10-24T18:40:11.108Z,1.52
2022-10-24T18:42:44.115Z,1.00
2022-10-24T18:45:19.707Z,1.00
2022-10-24T18:47:47.836Z,1.35
2022-10-24T18:50:17.650Z,1.40
2022-10-24T18:52:47.130Z,1.80
2022-10-24T18:55:19.153Z,1.30
2022-10-24T18:57:47.093Z,1.50
2022-10-24T19:00:17.259Z,2.35
2022-10-24T19:03:18.421Z,1.70
2022-10-24T19:06:21.691Z,1.65
2022-10-24T19:08:48.693Z,1.20
2022-10-24T19:11:15.858Z,1.38
2022-10-24T19:13:44.924Z,1.58
2022-10-24T19:16:17.107Z,1.60
2022-10-24T19:18:50.457Z,1.75
2022-10-24T19:21:17.588Z,1.33
2022-10-24T19:23:44.567Z,1.00
2022-10-24T19:26:12.202Z,1.40
2022-10-24T19:28:39.079Z,1.30
2022-10-24T19:31:06.808Z,1.65
2022-10-24T19:33:33.847Z,1.50
2022-10-24T19:36:05.701Z,1.70
2022-10-24T19:38:32.866Z,1.48
2022-10-24T19:41:00.323Z,1.33
2022-10-24T19:43:30.857Z,1.50
2022-10-24T19:46:14.894Z,1.60
2022-10-24T19:48:49.224Z,1.33
2022-10-24T19:51:18.185Z,1.13
2022-10-24T19:53:45.734Z,1.30
2022-10-24T19:56:23.985Z,1.50
2022-10-24T19:58:53.238Z,1.50
2022-10-24T20:01:23.804Z,1.40
2022-10-24T20:03:51.944Z,1.50
2022-10-24T20:06:19.703Z,1.42
2022-10-24T20:08:47.681Z,1.42
2022-10-24T20:11:20.687Z,1.88
2022-10-24T20:13:50.470Z,1.27
2022-10-24T20:16:17.903Z,1.80
2022-10-24T20:18:44.855Z,2.15
2022-10-24T20:21:14.788Z,2.10
2022-10-24T20:23:41.918Z,2.00
2022-10-24T20:26:21.412Z,1.75
2022-10-24T20:28:51.047Z,2.00
2022-10-24T20:31:21.041Z,1.70
2022-10-24T20:33:48.115Z,1.60
2022-10-24T20:36:15.251Z,1.55
2022-10-24T20:38:42.161Z,2.10
2022-10-24T20:41:09.307Z,2.10
2022-10-24T20:43:36.291Z,1.98
2022-10-24T20:46:06.755Z,2.17
2022-10-24T20:48:34.862Z,2.00
2022-10-24T20:51:12.486Z,2.22
2022-10-24T20:53:40.236Z,1.92
2022-10-24T20:56:09.660Z,1.92
2022-10-24T20:58:38.589Z,2.55
2022-10-24T21:01:10.831Z,2.38
2022-10-24T21:03:38.694Z,1.70
2022-10-24T21:06:13.775Z,2.47
2022-10-24T21:08:40.729Z,2.53
2022-10-24T21:11:08.161Z,3.03
2022-10-24T21:13:35.047Z,2.40
2022-10-24T21:16:02.324Z,3.25
2022-10-24T21:18:29.191Z,2.63
2022-10-24T21:20:56.039Z,2.35
2022-10-24T21:23:23.013Z,2.05
2022-10-24T21:25:49.860Z,2.38
2022-10-24T21:28:16.755Z,2.63
2022-10-24T21:30:43.607Z,2.42
2022-10-24T21:33:10.806Z,2.53
2022-10-24T21:35:39.243Z,2.70
2022-10-24T21:38:06.106Z,2.15
2022-10-24T21:40:32.978Z,2.03
2022-10-24T21:43:01.171Z,2.33
2022-10-24T21:45:28.070Z,2.30
2022-10-24T21:47:54.924Z,2.00
2022-10-24T21:50:21.858Z,2.40
2022-10-24T21:52:48.902Z,2.00
2022-10-24T21:55:16.091Z,1.85
2022-10-24T21:57:43.039Z,2.63
2022-10-24T22:00:10.651Z,2.33
2022-10-24T22:02:37.534Z,2.30
2022-10-24T22:05:04.874Z,2.17
2022-10-24T22:07:31.711Z,2.40
2022-10-24T22:09:58.656Z,2.33
2022-10-24T22:12:25.612Z,2.42
2022-10-24T22:14:52.536Z,2.40
2022-10-24T22:17:19.411Z,2.30
2022-10-24T22:19:46.252Z,2.33
2022-10-24T22:22:13.396Z,2.53
2022-10-24T22:24:40.238Z,2.83
2022-10-24T22:27:07.073Z,2.80
2022-10-24T22:29:34.052Z,2.95
2022-10-24T22:32:01.099Z,2.35
2022-10-24T22:34:28.638Z,2.65
2022-10-24T22:37:13.019Z,3.05
2022-10-24T22:39:40.630Z,3.40
2022-10-24T22:42:12.445Z,2.72
2022-10-24T22:44:41.990Z,2.80
2022-10-24T22:47:29.843Z,2.72
2022-10-24T22:50:11.840Z,3.17
2022-10-24T22:52:39.185Z,3.15
2022-10-24T22:55:17.553Z,2.72
2022-10-24T22:57:44.853Z,2.78
2022-10-24T23:00:12.320Z,2.70
2022-10-24T23:02:45.637Z,3.50
2022-10-24T23:05:36.593Z,2.92
2022-10-24T23:08:12.470Z,3.38
2022-10-24T23:10:40.089Z,3.00
2022-10-24T23:13:07.458Z,2.97
2022-10-24T23:15:34.622Z,3.00
2022-10-24T23:18:01.773Z,3.03
2022-10-24T23:20:43.984Z,2.88
2022-10-24T23:23:28.052Z,2.70
2022-10-24T23:26:03.800Z,2.75
2022-10-24T23:28:42.623Z,3.47
2022-10-24T23:31:09.895Z,3.42
2022-10-24T23:33:37.045Z,3.15
2022-10-24T23:36:04.320Z,2.58
2022-10-24T23:38:31.464Z,3.08
2022-10-24T23:40:58.698Z,3.55
2022-10-24T23:43:25.913Z,3.50
2022-10-24T23:46:33.413Z,3.70
2022-10-24T23:49:29.894Z,3.85
2022-10-24T23:52:32.384Z,3.78
2022-10-24T23:54:59.550Z,3.08
2022-10-24T23:57:26.648Z,3.95
2022-10-24T23:59:53.659Z,3.47
